Terminal Aerodrome Forecast
Issued by NWS

Home | Current Version | Previous Version | Text Only | Print | Product List | Glossary On
Versions: 1 2 3 4 5 6 7 8 9 10 11 12 13 14 15 16 17 18 19 20 21 22 23 24 25 26
000
FTUS46 KLOX 301740
TAFSBP
TAF
KSBP 301740Z 3018/3118 22003KT P6SM SCT014
     FM301830 VRB03KT P6SM SCT010
     FM302000 29010KT P6SM SKC
     FM310200 VRB05KT P6SM BKN008
     FM310800 VRB05KT 3SM BR OVC005=

USA.gov is the U.S. government's official web portal to all federal, state and local government web resources and services.